Superferry II — SWKV — position and weather

sailwx.info

Track history (hours):
 
Tides and Currents Weather Stations Pressure Air Temp Water Temp Dewpoint Dewpoint Depression Visibility Wind Speed Wind Dir Waves Ship Positions

Superferry II

Last reported at 2016-Jul-01 23:27 UTC. Time now 2016-Jul-02 02:14 UTC.
Position N 38°01' E 024°01'.

Length 122 m; draft 4.7 m.

Type: Passenger vessel. MMSI: 237001000.

Date/timePositionNaut miles runAvg speedWind from/ knotsBaromVisibWave heightAir tempDewpointWater temp
2016-Jul-01 23:27N 38°01' E 024°01'4 1.5
2016-Jul-01 20:34N 38°00' E 024°06'1918.7
2016-Jul-01 19:33N 37°55' E 024°29'1210.6
2016-Jul-01 18:26N 37°52' E 024°44'1517.4
2016-Jul-01 17:33N 37°56' E 024°25'1818.6
2016-Jul-01 16:34N 38°01' E 024°02'1 0.9
2016-Jul-01 15:24N 38°01' E 024°01'6115.6
2016-Jul-01 11:29N 37°32' E 025°09'9 9.9
2016-Jul-01 10:33N 37°28' E 025°19'9 9.1
2016-Jul-01 09:33N 37°32' E 025°09'5814.6
2016-Jul-01 05:33N 38°00' E 024°05'3 0.2
2016-Jun-30 15:33N 38°01' E 024°01'6115.2
2016-Jun-30 11:33N 37°32' E 025°09'9 9.1
2016-Jun-30 10:33N 37°28' E 025°19'4 4.2
2016-Jun-30 09:33N 37°29' E 025°14'5714.3
2016-Jun-30 05:33N 37°59' E 024°12'10 0.7
2016-Jun-29 15:33N 38°01' E 024°01'6215.0
2016-Jun-29 11:27N 37°32' E 025°09'910.2
2016-Jun-29 10:33N 37°28' E 025°19'3 2.6
2016-Jun-29 09:33N 37°28' E 025°16'5714.0
2016-Jun-29 05:30N 37°58' E 024°15'12 0.8
2016-Jun-28 15:27N 38°01' E 024°01'2418.6
2016-Jun-28 14:11N 37°55' E 024°29'3114.5
2016-Jun-28 12:04N 37°37' E 025°01'815.6
2016-Jun-28 11:33N 37°32' E 025°09'9 9.2
2016-Jun-28 10:33N 37°28' E 025°20'0 0.1
2016-Jun-28 09:33N 37°28' E 025°20'69 5.3
2016-Jun-27 20:33N 38°01' E 024°03'1918.6
2016-Jun-27 19:33N 37°56' E 024°25'1511.6
2016-Jun-27 18:16N 37°52' E 024°44'1318.1
2016-Jun-27 17:33N 37°55' E 024°28'1818.6
2016-Jun-27 16:34N 38°00' E 024°05'1 1.0
2016-Jun-27 15:34N 38°01' E 024°04'5315.5
2016-Jun-27 12:09N 37°35' E 025°03'6 9.4
2016-Jun-27 11:30N 37°32' E 025°09'9 9.7
2016-Jun-27 10:33N 37°28' E 025°19'0 0.0
2016-Jun-27 09:33N 37°28' E 025°19'6014.7
2016-Jun-27 05:30N 37°58' E 024°15'10 1.1
2016-Jun-26 20:33N 38°01' E 024°03'1 0.2
2016-Jun-26 16:33N 38°01' E 024°04'2 2.1
2016-Jun-26 15:33N 38°00' E 024°07'4814.2
2016-Jun-26 12:09N 37°37' E 025°00'914.4
2016-Jun-26 11:33N 37°32' E 025°09'9 4.6
2016-Jun-26 09:33N 37°28' E 025°19'1212.0
2016-Jun-26 08:32N 37°33' E 025°06'4715.5
2016-Jun-26 05:31N 37°58' E 024°15'12 0.9
2016-Jun-25 16:17N 38°01' E 024°01'5915.8
2016-Jun-25 12:33N 37°33' E 025°06'1211.5
2016-Jun-25 11:34N 37°28' E 025°19'0 0.2
2016-Jun-25 10:33N 37°28' E 025°19'4 3.7
2016-Jun-25 09:33N 37°29' E 025°15'5814.3
2016-Jun-25 05:31N 37°59' E 024°13'10 1.1
2016-Jun-24 20:32N 38°01' E 024°01'1818.0
2016-Jun-24 19:33N 37°56' E 024°22'1712.2
2016-Jun-24 18:12N 37°52' E 024°43'1818.4
2016-Jun-24 17:12N 37°57' E 024°20'1218.7
2016-Jun-24 16:33N 38°00' E 024°06'4 4.0
2016-Jun-24 15:33N 38°01' E 024°01'5515.9
2016-Jun-24 12:07N 37°36' E 025°02'712.3
2016-Jun-24 11:33N 37°32' E 025°09'9 9.2
2016-Jun-24 10:33N 37°28' E 025°19'4 4.0
2016-Jun-24 09:33N 37°29' E 025°15'64 3.5
2016-Jun-23 15:34N 38°00' E 024°05'4914.8
2016-Jun-23 12:16N 37°37' E 024°59'1013.7
2016-Jun-23 11:33N 37°32' E 025°09'9 9.1
2016-Jun-23 10:33N 37°28' E 025°19'3 2.7
2016-Jun-23 09:33N 37°28' E 025°16'5814.1
2016-Jun-23 05:26N 37°58' E 024°13'4 0.3
2016-Jun-22 15:34N 37°60' E 024°08'5513.8
2016-Jun-22 11:33N 37°32' E 025°09'9 8.0
2016-Jun-22 10:25N 37°28' E 025°19'6012.1
2016-Jun-22 05:29N 37°58' E 024°14'  
Track history (hours):
 
Tides and Currents Weather Stations Pressure Air Temp Water Temp Dewpoint Dewpoint Depression Visibility Wind Speed Wind Dir Waves Ship Positions

Superferry II

Last reported at 2016-Jul-01 23:27 UTC. Time now 2016-Jul-02 02:14 UTC.
Position N 38°01' E 024°01'.

Length 122 m; draft 4.7 m.

Type: Passenger vessel. MMSI: 237001000.

Date/timePositionNaut miles runAvg speedWind from/ knotsBaromVisibWave heightAir tempDewpointWater temp
2016-Jul-01 23:27N 38°01' E 024°01'4 1.5
2016-Jul-01 20:34N 38°00' E 024°06'1918.7
2016-Jul-01 19:33N 37°55' E 024°29'1210.6
2016-Jul-01 18:26N 37°52' E 024°44'1517.4
2016-Jul-01 17:33N 37°56' E 024°25'1818.6
2016-Jul-01 16:34N 38°01' E 024°02'1 0.9
2016-Jul-01 15:24N 38°01' E 024°01'6115.6
2016-Jul-01 11:29N 37°32' E 025°09'9 9.9
2016-Jul-01 10:33N 37°28' E 025°19'9 9.1
2016-Jul-01 09:33N 37°32' E 025°09'5814.6
2016-Jul-01 05:33N 38°00' E 024°05'3 0.2
2016-Jun-30 15:33N 38°01' E 024°01'6115.2
2016-Jun-30 11:33N 37°32' E 025°09'9 9.1
2016-Jun-30 10:33N 37°28' E 025°19'4 4.2
2016-Jun-30 09:33N 37°29' E 025°14'5714.3
2016-Jun-30 05:33N 37°59' E 024°12'10 0.7
2016-Jun-29 15:33N 38°01' E 024°01'6215.0
2016-Jun-29 11:27N 37°32' E 025°09'910.2
2016-Jun-29 10:33N 37°28' E 025°19'3 2.6
2016-Jun-29 09:33N 37°28' E 025°16'5714.0
2016-Jun-29 05:30N 37°58' E 024°15'12 0.8
2016-Jun-28 15:27N 38°01' E 024°01'2418.6
2016-Jun-28 14:11N 37°55' E 024°29'3114.5
2016-Jun-28 12:04N 37°37' E 025°01'815.6
2016-Jun-28 11:33N 37°32' E 025°09'9 9.2
2016-Jun-28 10:33N 37°28' E 025°20'0 0.1
2016-Jun-28 09:33N 37°28' E 025°20'69 5.3
2016-Jun-27 20:33N 38°01' E 024°03'1918.6
2016-Jun-27 19:33N 37°56' E 024°25'1511.6
2016-Jun-27 18:16N 37°52' E 024°44'1318.1
2016-Jun-27 17:33N 37°55' E 024°28'1818.6
2016-Jun-27 16:34N 38°00' E 024°05'1 1.0
2016-Jun-27 15:34N 38°01' E 024°04'5315.5
2016-Jun-27 12:09N 37°35' E 025°03'6 9.4
2016-Jun-27 11:30N 37°32' E 025°09'9 9.7
2016-Jun-27 10:33N 37°28' E 025°19'0 0.0
2016-Jun-27 09:33N 37°28' E 025°19'6014.7
2016-Jun-27 05:30N 37°58' E 024°15'10 1.1
2016-Jun-26 20:33N 38°01' E 024°03'1 0.2
2016-Jun-26 16:33N 38°01' E 024°04'2 2.1
2016-Jun-26 15:33N 38°00' E 024°07'4814.2
2016-Jun-26 12:09N 37°37' E 025°00'914.4
2016-Jun-26 11:33N 37°32' E 025°09'9 4.6
2016-Jun-26 09:33N 37°28' E 025°19'1212.0
2016-Jun-26 08:32N 37°33' E 025°06'4715.5
2016-Jun-26 05:31N 37°58' E 024°15'12 0.9
2016-Jun-25 16:17N 38°01' E 024°01'5915.8
2016-Jun-25 12:33N 37°33' E 025°06'1211.5
2016-Jun-25 11:34N 37°28' E 025°19'0 0.2
2016-Jun-25 10:33N 37°28' E 025°19'4 3.7
2016-Jun-25 09:33N 37°29' E 025°15'5814.3
2016-Jun-25 05:31N 37°59' E 024°13'10 1.1
2016-Jun-24 20:32N 38°01' E 024°01'1818.0
2016-Jun-24 19:33N 37°56' E 024°22'1712.2
2016-Jun-24 18:12N 37°52' E 024°43'1818.4
2016-Jun-24 17:12N 37°57' E 024°20'1218.7
2016-Jun-24 16:33N 38°00' E 024°06'4 4.0
2016-Jun-24 15:33N 38°01' E 024°01'5515.9
2016-Jun-24 12:07N 37°36' E 025°02'712.3
2016-Jun-24 11:33N 37°32' E 025°09'9 9.2
2016-Jun-24 10:33N 37°28' E 025°19'4 4.0
2016-Jun-24 09:33N 37°29' E 025°15'64 3.5
2016-Jun-23 15:34N 38°00' E 024°05'4914.8
2016-Jun-23 12:16N 37°37' E 024°59'1013.7
2016-Jun-23 11:33N 37°32' E 025°09'9 9.1
2016-Jun-23 10:33N 37°28' E 025°19'3 2.7
2016-Jun-23 09:33N 37°28' E 025°16'5814.1
2016-Jun-23 05:26N 37°58' E 024°13'4 0.3
2016-Jun-22 15:34N 37°60' E 024°08'5513.8
2016-Jun-22 11:33N 37°32' E 025°09'9 8.0
2016-Jun-22 10:25N 37°28' E 025°19'6012.1
2016-Jun-22 05:29N 37°58' E 024°14'  

Dump ship's entire track history